»·PEaware :: WAT380 KLAS-KDEN

WAT380 :: KLAS-KDEN

FLIGHT INFORMATION

Flight Status: Arrived
Operator:
Walker Air Transport
More flights by this operator :: More flights under this callsign
Pilot: Spencer M. (27733)
Aircraft: DASSAULT AVIATION FALCON 50
(FA50)
More flights by this aircraft type
Origin: KLAS McCarran Intl
United States
Destination: KDEN Denver Intl
United States
More flights between these airports :: More routes between these airports
Route: TRALR9 TRALR NICLE BUMMP SSKII2
File this flight plan on PilotEdge
Remarks:
Altitude:
(Current/Filed)
37,000ft
Speed:
(Current/Filed)
470kts
Departed: 10-Jan-21 08:49 PM
Arrived: 10-Jan-21 10:21 PM
Distance/Time
Traveled:
544nm/1:32
Distance/Time
To Go:
Arrived

Flight Plot

Page will automatically refresh every two minutes.

Flight plan parsing failed; only flown route is shown


Map Options




Map Legend


Flown Route
Filed Route
Departure Airport
Arrival Airport
Navaid (VOR, NDB)
Fix

Horizontal Profiles

Position Reports

Time Latitude Longitude Heading Altitude Ground
Speed
10-Jan-21 20:28 36.080698 -115.170799 89 2188ft 0kts
10-Jan-21 20:29 36.080698 -115.170799 89 2188ft 0kts
10-Jan-21 20:30 36.080698 -115.170799 89 2188ft 0kts
10-Jan-21 20:31 36.080698 -115.170799 89 2188ft 0kts
10-Jan-21 20:32 36.080698 -115.170799 89 2188ft 0kts
10-Jan-21 20:33 36.080698 -115.170799 89 2188ft 0kts
10-Jan-21 20:34 36.080698 -115.170799 89 2188ft 0kts
10-Jan-21 20:35 36.080698 -115.170799 89 2188ft 0kts
10-Jan-21 20:36 36.080698 -115.170799 89 2188ft 0kts
10-Jan-21 20:37 36.080698 -115.170799 89 2188ft 0kts
10-Jan-21 20:38 36.080698 -115.170799 89 2188ft 0kts
10-Jan-21 20:39 36.080702 -115.170688 85 2188ft 4kts
10-Jan-21 20:40 36.083070 -115.167512 33 2188ft 16kts
10-Jan-21 20:41 36.087448 -115.164937 25 2188ft 18kts
10-Jan-21 20:43 36.093008 -115.161751 24 2188ft 26kts
10-Jan-21 20:44 36.098275 -115.158733 24 2188ft 0kts
10-Jan-21 20:45 36.099632 -115.158191 47 2188ft 12kts
10-Jan-21 20:46 36.099852 -115.157570 88 2188ft 0kts
10-Jan-21 20:47 36.099852 -115.157570 88 2188ft 0kts
10-Jan-21 20:48 36.099790 -115.157191 110 2188ft 10kts
10-Jan-21 20:49 36.077070 -115.169496 206 2673ft 186kts
10-Jan-21 20:50 36.022331 -115.201861 215 5485ft 244kts
10-Jan-21 20:51 35.979029 -115.271940 218 6853ft 274kts
10-Jan-21 20:52 35.909216 -115.278534 163 9066ft 268kts
10-Jan-21 20:53 35.864356 -115.207138 88 12021ft 333kts
10-Jan-21 20:54 35.864808 -115.082809 85 15225ft 381kts
10-Jan-21 20:55 35.909012 -114.966582 52 18471ft 388kts
10-Jan-21 20:56 35.962748 -114.848179 57 21302ft 409kts
10-Jan-21 20:57 36.012040 -114.718536 58 23690ft 424kts
10-Jan-21 20:57 36.054747 -114.607414 57 25376ft 434kts
10-Jan-21 20:58 36.107367 -114.470441 57 27005ft 447kts
10-Jan-21 21:00 36.168590 -114.310130 57 29659ft 439kts
10-Jan-21 21:00 36.201802 -114.191145 75 31249ft 451kts
10-Jan-21 21:01 36.218579 -114.037532 76 33055ft 448kts
10-Jan-21 21:02 36.236346 -113.885805 76 34779ft 444kts
10-Jan-21 21:03 36.253869 -113.735747 77 36391ft 439kts
10-Jan-21 21:04 36.271165 -113.586223 77 37351ft 448kts
10-Jan-21 21:05 36.289205 -113.428411 78 37349ft 475kts
10-Jan-21 21:06 36.307768 -113.263555 79 37341ft 491kts
10-Jan-21 21:07 36.358623 -113.109729 55 37340ft 486kts
10-Jan-21 21:08 36.427030 -112.964127 57 37337ft 490kts
10-Jan-21 21:09 36.492847 -112.816046 58 37332ft 491kts
10-Jan-21 21:10 36.558228 -112.667097 58 37349ft 491kts
10-Jan-21 21:11 36.623262 -112.518264 58 37368ft 490kts
10-Jan-21 21:12 36.688070 -112.369294 58 37376ft 490kts
10-Jan-21 21:13 36.752559 -112.220373 59 37373ft 489kts
10-Jan-21 21:14 36.816940 -112.071013 59 37373ft 487kts
10-Jan-21 21:15 36.880664 -111.922491 59 37357ft 485kts
10-Jan-21 21:16 36.943858 -111.774535 59 37345ft 483kts
10-Jan-21 21:17 37.006934 -111.626176 59 37345ft 482kts
10-Jan-21 21:18 37.069401 -111.478572 59 37345ft 481kts
10-Jan-21 21:19 37.131740 -111.330602 59 37349ft 480kts
10-Jan-21 21:20 37.193875 -111.182434 59 37349ft 480kts
10-Jan-21 21:21 37.255568 -111.034628 59 37355ft 479kts
10-Jan-21 21:22 37.317013 -110.886733 59 37373ft 478kts
10-Jan-21 21:23 37.378315 -110.738496 59 37376ft 478kts
10-Jan-21 21:24 37.439285 -110.590367 58 37376ft 477kts
10-Jan-21 21:25 37.499923 -110.442351 58 37375ft 476kts
10-Jan-21 21:26 37.560330 -110.294207 59 37374ft 475kts
10-Jan-21 21:27 37.620254 -110.146561 58 37373ft 473kts
10-Jan-21 21:28 37.679965 -109.998744 58 37378ft 472kts
10-Jan-21 21:29 37.739311 -109.851137 58 37381ft 472kts
10-Jan-21 21:30 37.798339 -109.703636 58 37378ft 471kts
10-Jan-21 21:31 37.857215 -109.555805 58 37371ft 472kts
10-Jan-21 21:32 37.915986 -109.407527 58 37363ft 472kts
10-Jan-21 21:33 37.974718 -109.258646 59 37361ft 472kts
10-Jan-21 21:34 38.033204 -109.109662 59 37348ft 471kts
10-Jan-21 21:35 38.091137 -108.961360 59 37327ft 468kts
10-Jan-21 21:36 38.149212 -108.813653 58 37333ft 468kts
10-Jan-21 21:37 38.207079 -108.666218 58 37332ft 468kts
10-Jan-21 21:38 38.264974 -108.517868 58 37338ft 468kts
10-Jan-21 21:39 38.322480 -108.369798 58 37361ft 468kts
10-Jan-21 21:40 38.380020 -108.220912 59 37383ft 469kts
10-Jan-21 21:41 38.437299 -108.071981 59 37394ft 469kts
10-Jan-21 21:42 38.494314 -107.922246 59 37393ft 470kts
10-Jan-21 21:43 38.550955 -107.771880 59 37393ft 469kts
10-Jan-21 21:44 38.607030 -107.622411 60 37392ft 468kts
10-Jan-21 21:45 38.663113 -107.472281 60 37391ft 466kts
10-Jan-21 21:46 38.719030 -107.324788 60 37126ft 455kts
10-Jan-21 21:47 38.771788 -107.184763 61 35095ft 419kts
10-Jan-21 21:48 38.821074 -107.053489 61 33161ft 403kts
10-Jan-21 21:49 38.868893 -106.925510 61 31369ft 395kts
10-Jan-21 21:50 38.915682 -106.799714 62 29645ft 387kts
10-Jan-21 21:51 38.961617 -106.675705 62 28030ft 383kts
10-Jan-21 21:52 39.006770 -106.553262 62 27417ft 385kts
10-Jan-21 21:53 39.053184 -106.426354 62 26349ft 397kts
10-Jan-21 21:54 39.100044 -106.297677 63 24936ft 398kts
10-Jan-21 21:55 39.146849 -106.168627 63 23449ft 397kts
10-Jan-21 21:56 39.193375 -106.039945 63 21965ft 396kts
10-Jan-21 21:57 39.239721 -105.911237 64 20469ft 396kts
10-Jan-21 21:58 39.284193 -105.787154 64 20242ft 364kts
10-Jan-21 21:59 39.324777 -105.673506 64 20205ft 335kts
10-Jan-21 22:00 39.362208 -105.570924 63 18513ft 297kts
10-Jan-21 22:01 39.396186 -105.477731 63 17837ft 281kts
10-Jan-21 22:02 39.434635 -105.388464 53 17046ft 290kts
10-Jan-21 22:03 39.480844 -105.303287 54 15726ft 286kts
10-Jan-21 22:04 39.526340 -105.219349 54 15339ft 286kts
10-Jan-21 22:05 39.565787 -105.125250 63 14157ft 304kts
10-Jan-21 22:06 39.600847 -105.029300 63 13143ft 285kts
10-Jan-21 22:07 39.634254 -104.937797 63 12994ft 278kts
10-Jan-21 22:08 39.667524 -104.846382 63 13000ft 283kts
10-Jan-21 22:09 39.705124 -104.757221 45 12842ft 280kts
10-Jan-21 22:10 39.758256 -104.687742 44 11826ft 262kts
10-Jan-21 22:11 39.802257 -104.616326 56 10976ft 239kts
10-Jan-21 22:12 39.835559 -104.549257 52 11003ft 221kts
10-Jan-21 22:13 39.894384 -104.522319 359 11020ft 247kts
10-Jan-21 22:14 39.957054 -104.531847 330 10284ft 215kts
10-Jan-21 22:15 39.979601 -104.595425 273 9222ft 195kts
10-Jan-21 22:16 39.964640 -104.651175 214 8432ft 146kts
10-Jan-21 22:17 39.925464 -104.658990 181 7171ft 143kts
10-Jan-21 22:18 39.886795 -104.659750 182 5978ft 134kts
10-Jan-21 22:19 39.851644 -104.660301 179 5441ft 104kts
10-Jan-21 22:20 39.842691 -104.660556 188 5441ft 23kts
10-Jan-21 22:21 39.839937 -104.663646 222 5441ft 6kts
10-Jan-21 22:22 39.839415 -104.665526 180 5441ft 0kts
10-Jan-21 22:23 39.839415 -104.665526 180 5441ft 0kts

Navigation Log

Ident Type
Flight plan parsing failed, navigation log unavailable